Port Angeles, WA

7:06 AM PST on February 12, 2016 (GMT -0800)
Fairchild International | | Change Station
CLOSE
Current Station
Airport
Location: Port Angeles,
Elevation: 289 ft
Nearby Weather Stations

Elev 289 ft 48.12 °N, 123.50 °W | Updated 13 minutes ago

Fog
Fog
47 °F
Feels Like 47 °F
N
4
Wind Variable Wind from West

Today
High -- | Low -- °F
--% Chance of Precip.
Yesterday
High -- | Low -- °F
Precip. -- in
Pressure 30.01 in
Visibility 0.2 miles
Clouds
Dew Point 46 °F
Humidity 97%
Rainfall 0.06 in
Snow Depth Not available.
7:26 AM 5:30 PM
Waxing Crescent, 21% visible
METAR KCLM 121453Z AUTO 27003KT M1/4SM FG VV001 08/08 A3000 RMK AO2 SLP161 60002 T00830078 58002
Pressure 30.01 in
Visibility 0.2 miles
Clouds
Dew Point 46 °F
Humidity 97%
Rainfall 0.06 in
Snow Depth Not available.
7:26 AM 5:30 PM
Waxing Crescent, 21% visible
METAR KCLM 121453Z AUTO 27003KT M1/4SM FG VV001 08/08 A3000 RMK AO2 SLP161 60002 T00830078 58002

10-Day Weather Forecast

Almanac

Astronomy

Feb. 12, 2016 Rise Set
Actual Time
Civil Twilight
Nautical Twilight
Astronomical Twilight
Moon
Length of Visible Light
Length of Day
Tomorrow will be .
, % of the Moon is Illuminated

Today's Extremes

State Highs State Lows

Community

WunderPhotos

Upload Photos

1,892,323 photos uploaded!

WunderBlog® & News

Nearby

Air Quality

  Air Quality AQ Index Pollutant
Not available.

Snow Depth

Station Depth Elevation

Earthquake Activity

City Distance Mag. Time & Date
Minimum magnitude displayed is 2.5.

Coastal Water Temperatures

Place Temperature

Stations

Nearby Weather Stations

Station Location Temp. Windchill Dew Point Humidity Wind Precip. Elev Updated Type
                   

Watches & Warnings

There are currently no watches in effect.